Airfield :
LOGIN :

Register | Disclaimer

   EN    FR    IT 

 










Legend :    VFR   Marginal VFR   IFR   Intensive IFR   Very Intensive IFR
Visi :
Ceiling :
>= 8 km
>= 3000ft
5 to 8 km
1000 to 3000 ft
1500m to 5 km
500 to 1000 ft
800 to 1500m
200 to 500 ft
< 800m
< 200 ft
Symbols :   Thunderstorms  Fog  Heavy snow  Heavy precipitations  Wind > 20 kt
SIGMETs :     Misc.  Thunderstorms  Icing  Turbulence  Mountain Waves  Volcanic Ashes






- Airport Elevation : 291 ft
- IATA code : ORY


LFPO - Paris-Orly

CURRENT METAR :
  • 232330Z 21006KT 160V230 9999 FEW017 12/10 Q1016 NOSIG

EXPIRED METARs :
  • 232300Z 21008KT 9999 BKN025 13/11 Q1016 NOSIG
  • 232230Z 22007KT 9999 BKN022 13/11 Q1016 NOSIG
  • 232200Z 23006KT 9999 BKN021 BKN043 BKN130 13/11 Q1016 NOSIG
  • 232130Z 22008KT CAVOK 13/11 Q1015 NOSIG

TAF TAF LFPO
Valid from the 24 at 00:00 until the 25 at 06:00 UTC


232300Z 2400/2506 22008KT 9999 BKN020 BKN040
BECMG 2403/2405 20012G22KT BKN012
TEMPO 2403/2412 4000 -RA BKN008
TEMPO 2410/2504 20015G30KT
BECMG 2414/2416 BKN020
TEMPO 2502/2506 4000 RA BKN014 BKN050 OVC100
ATIS : +33 1 49 75 65 80



MET'MAP, your aeronautical weather chart ! - Copyright ORBIFLY December 2007 - Disclaimer

ORBIFLY MET'MAP TEAM :

Programming & Development : Alexandra Zaïnal
Concept & original design : Baudouin d'Aumeries
Assistance for programming : Marc-Olivier Méhu
Technical & hardware support : Manuel Goepfert

Contact : metmap@orbifly.com




SOURCES & CREDITS :

   NOAA